sensor_id;sensor_type;location;lat;lon;timestamp;P1;durP1;ratioP1;P2;durP2;ratioP2
19163;SDS011;9714;51.208;4.242;2023-02-13T00:06:50;64.00;;;32.30;;
19163;SDS011;9714;51.208;4.242;2023-02-13T00:09:27;62.33;;;32.57;;
19163;SDS011;9714;51.208;4.242;2023-02-13T00:11:59;59.17;;;31.53;;
19163;SDS011;9714;51.208;4.242;2023-02-13T00:14:38;59.93;;;32.73;;
19163;SDS011;9714;51.208;4.242;2023-02-13T00:17:29;60.77;;;31.30;;
19163;SDS011;9714;51.208;4.242;2023-02-13T00:22:48;62.10;;;31.80;;
19163;SDS011;9714;51.208;4.242;2023-02-13T00:25:41;60.03;;;33.33;;
19163;SDS011;9714;51.208;4.242;2023-02-13T00:31:41;61.73;;;33.07;;
19163;SDS011;9714;51.208;4.242;2023-02-13T00:34:15;62.83;;;32.57;;
19163;SDS011;9714;51.208;4.242;2023-02-13T00:37:02;62.43;;;33.90;;
19163;SDS011;9714;51.208;4.242;2023-02-13T00:41:07;63.73;;;33.37;;
19163;SDS011;9714;51.208;4.242;2023-02-13T00:50:11;66.83;;;34.57;;
19163;SDS011;9714;51.208;4.242;2023-02-13T00:52:44;67.30;;;33.97;;
19163;SDS011;9714;51.208;4.242;2023-02-13T00:55:34;71.17;;;34.17;;
19163;SDS011;9714;51.208;4.242;2023-02-13T00:58:14;66.17;;;33.27;;
19163;SDS011;9714;51.208;4.242;2023-02-13T01:00:45;63.90;;;32.47;;
19163;SDS011;9714;51.208;4.242;2023-02-13T01:03:18;70.17;;;34.93;;
19163;SDS011;9714;51.208;4.242;2023-02-13T01:05:57;68.93;;;34.43;;
19163;SDS011;9714;51.208;4.242;2023-02-13T01:08:37;66.73;;;33.63;;
19163;SDS011;9714;51.208;4.242;2023-02-13T01:11:09;68.83;;;33.00;;
19163;SDS011;9714;51.208;4.242;2023-02-13T01:13:41;70.43;;;34.53;;
19163;SDS011;9714;51.208;4.242;2023-02-13T01:16:18;73.73;;;34.60;;
19163;SDS011;9714;51.208;4.242;2023-02-13T01:18:46;67.00;;;34.40;;
19163;SDS011;9714;51.208;4.242;2023-02-13T01:21:18;65.00;;;33.70;;
19163;SDS011;9714;51.208;4.242;2023-02-13T01:23:48;65.63;;;34.13;;
19163;SDS011;9714;51.208;4.242;2023-02-13T01:26:21;70.03;;;34.23;;
19163;SDS011;9714;51.208;4.242;2023-02-13T01:32:16;68.97;;;34.33;;
19163;SDS011;9714;51.208;4.242;2023-02-13T01:38:24;73.30;;;33.90;;
19163;SDS011;9714;51.208;4.242;2023-02-13T01:41:05;67.90;;;35.70;;
19163;SDS011;9714;51.208;4.242;2023-02-13T01:44:00;72.73;;;35.37;;
19163;SDS011;9714;51.208;4.242;2023-02-13T01:46:57;67.77;;;33.47;;
19163;SDS011;9714;51.208;4.242;2023-02-13T02:07:22;73.60;;;33.53;;
19163;SDS011;9714;51.208;4.242;2023-02-13T02:09:57;74.07;;;34.03;;
19163;SDS011;9714;51.208;4.242;2023-02-13T02:12:31;72.87;;;34.63;;
19163;SDS011;9714;51.208;4.242;2023-02-13T02:15:03;73.33;;;35.40;;
19163;SDS011;9714;51.208;4.242;2023-02-13T02:20:09;78.17;;;36.30;;
19163;SDS011;9714;51.208;4.242;2023-02-13T02:22:57;72.23;;;34.83;;
19163;SDS011;9714;51.208;4.242;2023-02-13T02:32:44;76.97;;;34.87;;
19163;SDS011;9714;51.208;4.242;2023-02-13T02:52:29;74.77;;;35.47;;
19163;SDS011;9714;51.208;4.242;2023-02-13T02:58:49;74.70;;;35.33;;
19163;SDS011;9714;51.208;4.242;2023-02-13T03:32:00;84.40;;;36.20;;
19163;SDS011;9714;51.208;4.242;2023-02-13T03:34:53;85.70;;;36.53;;
19163;SDS011;9714;51.208;4.242;2023-02-13T03:38:33;81.20;;;36.90;;
19163;SDS011;9714;51.208;4.242;2023-02-13T03:48:07;87.47;;;36.57;;
19163;SDS011;9714;51.208;4.242;2023-02-13T04:01:43;79.27;;;35.80;;
19163;SDS011;9714;51.208;4.242;2023-02-13T04:04:32;79.07;;;33.07;;
19163;SDS011;9714;51.208;4.242;2023-02-13T04:07:06;76.53;;;32.87;;
19163;SDS011;9714;51.208;4.242;2023-02-13T04:09:59;73.93;;;33.67;;
19163;SDS011;9714;51.208;4.242;2023-02-13T04:12:33;73.23;;;33.93;;
19163;SDS011;9714;51.208;4.242;2023-02-13T04:15:11;73.27;;;32.50;;
19163;SDS011;9714;51.208;4.242;2023-02-13T04:17:47;75.03;;;34.20;;
19163;SDS011;9714;51.208;4.242;2023-02-13T04:20:25;75.73;;;34.97;;
19163;SDS011;9714;51.208;4.242;2023-02-13T04:45:02;84.87;;;35.20;;
19163;SDS011;9714;51.208;4.242;2023-02-13T05:16:35;89.03;;;37.87;;
19163;SDS011;9714;51.208;4.242;2023-02-13T05:19:07;96.60;;;39.97;;
19163;SDS011;9714;51.208;4.242;2023-02-13T05:21:35;112.63;;;48.97;;
19163;SDS011;9714;51.208;4.242;2023-02-13T05:24:37;95.27;;;40.47;;
19163;SDS011;9714;51.208;4.242;2023-02-13T05:27:04;87.40;;;39.93;;
19163;SDS011;9714;51.208;4.242;2023-02-13T05:35:35;98.73;;;39.77;;
19163;SDS011;9714;51.208;4.242;2023-02-13T05:38:26;99.40;;;38.57;;
19163;SDS011;9714;51.208;4.242;2023-02-13T05:48:07;82.97;;;35.37;;
19163;SDS011;9714;51.208;4.242;2023-02-13T05:53:13;88.97;;;35.97;;
19163;SDS011;9714;51.208;4.242;2023-02-13T05:55:41;92.63;;;35.27;;
19163;SDS011;9714;51.208;4.242;2023-02-13T05:58:14;91.47;;;34.70;;
19163;SDS011;9714;51.208;4.242;2023-02-13T06:00:41;88.37;;;34.00;;
19163;SDS011;9714;51.208;4.242;2023-02-13T06:03:13;91.90;;;33.13;;
19163;SDS011;9714;51.208;4.242;2023-02-13T06:08:20;98.30;;;35.53;;
19163;SDS011;9714;51.208;4.242;2023-02-13T06:10:47;115.27;;;37.33;;
19163;SDS011;9714;51.208;4.242;2023-02-13T06:13:22;176.70;;;37.77;;
19163;SDS011;9714;51.208;4.242;2023-02-13T06:15:59;296.63;;;40.20;;
19163;SDS011;9714;51.208;4.242;2023-02-13T06:18:31;391.13;;;44.53;;
19163;SDS011;9714;51.208;4.242;2023-02-13T06:20:58;391.03;;;41.97;;
19163;SDS011;9714;51.208;4.242;2023-02-13T06:23:26;456.97;;;45.97;;
19163;SDS011;9714;51.208;4.242;2023-02-13T06:25:54;435.57;;;43.53;;
19163;SDS011;9714;51.208;4.242;2023-02-13T06:28:22;465.33;;;45.73;;
19163;SDS011;9714;51.208;4.242;2023-02-13T06:30:50;393.63;;;40.40;;
19163;SDS011;9714;51.208;4.242;2023-02-13T06:33:19;413.17;;;41.03;;
19163;SDS011;9714;51.208;4.242;2023-02-13T06:35:48;302.70;;;37.97;;
19163;SDS011;9714;51.208;4.242;2023-02-13T06:38:15;341.10;;;40.20;;
19163;SDS011;9714;51.208;4.242;2023-02-13T06:40:44;376.23;;;45.30;;
19163;SDS011;9714;51.208;4.242;2023-02-13T06:43:17;246.57;;;38.13;;
19163;SDS011;9714;51.208;4.242;2023-02-13T06:45:45;305.13;;;39.60;;
19163;SDS011;9714;51.208;4.242;2023-02-13T06:48:12;383.17;;;46.70;;
19163;SDS011;9714;51.208;4.242;2023-02-13T06:50:41;309.63;;;40.00;;
19163;SDS011;9714;51.208;4.242;2023-02-13T06:53:15;374.37;;;46.33;;
19163;SDS011;9714;51.208;4.242;2023-02-13T06:55:44;245.73;;;35.37;;
19163;SDS011;9714;51.208;4.242;2023-02-13T07:01:34;240.77;;;39.53;;
19163;SDS011;9714;51.208;4.242;2023-02-13T07:04:03;263.20;;;36.00;;
19163;SDS011;9714;51.208;4.242;2023-02-13T07:06:32;230.60;;;36.13;;
19163;SDS011;9714;51.208;4.242;2023-02-13T07:09:04;272.77;;;38.27;;
19163;SDS011;9714;51.208;4.242;2023-02-13T07:11:34;229.60;;;35.07;;
19163;SDS011;9714;51.208;4.242;2023-02-13T07:14:06;190.77;;;33.50;;
19163;SDS011;9714;51.208;4.242;2023-02-13T07:16:35;152.40;;;30.83;;
19163;SDS011;9714;51.208;4.242;2023-02-13T07:19:08;170.40;;;33.37;;
19163;SDS011;9714;51.208;4.242;2023-02-13T07:21:36;159.73;;;31.13;;
19163;SDS011;9714;51.208;4.242;2023-02-13T07:24:07;129.27;;;30.90;;
19163;SDS011;9714;51.208;4.242;2023-02-13T07:26:35;149.47;;;31.80;;
19163;SDS011;9714;51.208;4.242;2023-02-13T07:29:02;142.93;;;30.40;;
19163;SDS011;9714;51.208;4.242;2023-02-13T07:31:32;96.10;;;28.00;;
19163;SDS011;9714;51.208;4.242;2023-02-13T07:33:59;103.60;;;30.17;;
19163;SDS011;9714;51.208;4.242;2023-02-13T07:36:27;141.23;;;31.93;;
19163;SDS011;9714;51.208;4.242;2023-02-13T07:38:55;156.87;;;31.50;;
19163;SDS011;9714;51.208;4.242;2023-02-13T07:41:30;144.00;;;32.57;;
19163;SDS011;9714;51.208;4.242;2023-02-13T07:44:00;96.77;;;30.17;;
19163;SDS011;9714;51.208;4.242;2023-02-13T07:46:27;79.30;;;27.53;;
19163;SDS011;9714;51.208;4.242;2023-02-13T07:48:54;84.57;;;28.27;;
19163;SDS011;9714;51.208;4.242;2023-02-13T07:51:21;68.10;;;23.53;;
19163;SDS011;9714;51.208;4.242;2023-02-13T07:53:53;126.77;;;25.67;;
19163;SDS011;9714;51.208;4.242;2023-02-13T07:56:20;74.73;;;25.20;;
19163;SDS011;9714;51.208;4.242;2023-02-13T07:58:52;73.90;;;24.43;;
19163;SDS011;9714;51.208;4.242;2023-02-13T08:01:20;51.97;;;22.27;;
19163;SDS011;9714;51.208;4.242;2023-02-13T08:03:48;66.63;;;24.37;;
19163;SDS011;9714;51.208;4.242;2023-02-13T08:06:16;65.70;;;23.83;;
19163;SDS011;9714;51.208;4.242;2023-02-13T08:08:44;44.93;;;24.00;;
19163;SDS011;9714;51.208;4.242;2023-02-13T08:11:17;39.67;;;22.77;;
19163;SDS011;9714;51.208;4.242;2023-02-13T08:14:14;42.27;;;22.07;;
19163;SDS011;9714;51.208;4.242;2023-02-13T08:16:41;41.70;;;21.77;;
19163;SDS011;9714;51.208;4.242;2023-02-13T08:19:08;40.80;;;21.37;;
19163;SDS011;9714;51.208;4.242;2023-02-13T08:21:35;45.50;;;20.70;;
19163;SDS011;9714;51.208;4.242;2023-02-13T08:24:05;44.43;;;21.03;;
19163;SDS011;9714;51.208;4.242;2023-02-13T08:26:32;73.70;;;21.23;;
19163;SDS011;9714;51.208;4.242;2023-02-13T08:29:02;41.43;;;20.63;;
19163;SDS011;9714;51.208;4.242;2023-02-13T08:31:31;38.37;;;22.80;;
19163;SDS011;9714;51.208;4.242;2023-02-13T08:33:58;33.90;;;19.77;;
19163;SDS011;9714;51.208;4.242;2023-02-13T08:36:25;39.27;;;19.90;;
19163;SDS011;9714;51.208;4.242;2023-02-13T08:38:54;38.57;;;19.13;;
19163;SDS011;9714;51.208;4.242;2023-02-13T08:41:21;36.73;;;19.50;;
19163;SDS011;9714;51.208;4.242;2023-02-13T08:43:49;37.10;;;19.97;;
19163;SDS011;9714;51.208;4.242;2023-02-13T08:46:18;33.97;;;21.03;;
19163;SDS011;9714;51.208;4.242;2023-02-13T08:48:46;38.90;;;20.60;;
19163;SDS011;9714;51.208;4.242;2023-02-13T08:51:15;37.80;;;19.43;;
19163;SDS011;9714;51.208;4.242;2023-02-13T08:53:42;35.57;;;19.70;;
19163;SDS011;9714;51.208;4.242;2023-02-13T08:56:10;34.83;;;19.57;;
19163;SDS011;9714;51.208;4.242;2023-02-13T08:58:37;31.50;;;16.87;;
19163;SDS011;9714;51.208;4.242;2023-02-13T09:01:05;27.83;;;16.70;;
19163;SDS011;9714;51.208;4.242;2023-02-13T09:03:34;29.97;;;16.00;;
19163;SDS011;9714;51.208;4.242;2023-02-13T09:06:03;26.50;;;15.90;;
19163;SDS011;9714;51.208;4.242;2023-02-13T09:08:33;27.30;;;15.20;;
19163;SDS011;9714;51.208;4.242;2023-02-13T09:11:01;32.43;;;17.67;;
19163;SDS011;9714;51.208;4.242;2023-02-13T09:13:30;26.77;;;16.03;;
19163;SDS011;9714;51.208;4.242;2023-02-13T09:15:58;26.77;;;15.47;;
19163;SDS011;9714;51.208;4.242;2023-02-13T09:18:27;27.60;;;17.07;;
19163;SDS011;9714;51.208;4.242;2023-02-13T09:21:01;29.10;;;15.90;;
19163;SDS011;9714;51.208;4.242;2023-02-13T09:23:36;25.77;;;15.13;;
19163;SDS011;9714;51.208;4.242;2023-02-13T09:26:05;26.47;;;15.73;;
19163;SDS011;9714;51.208;4.242;2023-02-13T09:28:36;25.77;;;15.77;;
19163;SDS011;9714;51.208;4.242;2023-02-13T09:31:06;24.57;;;14.87;;
19163;SDS011;9714;51.208;4.242;2023-02-13T09:33:34;28.00;;;17.10;;
19163;SDS011;9714;51.208;4.242;2023-02-13T09:36:11;29.60;;;17.37;;
19163;SDS011;9714;51.208;4.242;2023-02-13T09:38:39;26.30;;;16.43;;
19163;SDS011;9714;51.208;4.242;2023-02-13T09:41:14;27.27;;;16.93;;
19163;SDS011;9714;51.208;4.242;2023-02-13T09:46:22;23.60;;;15.53;;
19163;SDS011;9714;51.208;4.242;2023-02-13T09:48:53;23.23;;;14.80;;
19163;SDS011;9714;51.208;4.242;2023-02-13T09:51:24;26.03;;;15.90;;
19163;SDS011;9714;51.208;4.242;2023-02-13T09:53:59;26.20;;;16.07;;
19163;SDS011;9714;51.208;4.242;2023-02-13T09:56:34;27.10;;;16.97;;
19163;SDS011;9714;51.208;4.242;2023-02-13T09:59:08;26.43;;;15.73;;
19163;SDS011;9714;51.208;4.242;2023-02-13T10:01:58;24.93;;;16.37;;
19163;SDS011;9714;51.208;4.242;2023-02-13T10:04:35;26.30;;;16.07;;
19163;SDS011;9714;51.208;4.242;2023-02-13T10:07:16;25.07;;;15.97;;
19163;SDS011;9714;51.208;4.242;2023-02-13T10:09:52;25.07;;;16.77;;
19163;SDS011;9714;51.208;4.242;2023-02-13T10:12:36;25.57;;;16.63;;
19163;SDS011;9714;51.208;4.242;2023-02-13T10:15:23;31.53;;;17.83;;
19163;SDS011;9714;51.208;4.242;2023-02-13T10:17:55;27.37;;;17.83;;
19163;SDS011;9714;51.208;4.242;2023-02-13T10:20:27;28.93;;;17.83;;
19163;SDS011;9714;51.208;4.242;2023-02-13T10:23:02;26.63;;;16.07;;
19163;SDS011;9714;51.208;4.242;2023-02-13T10:30:55;34.13;;;17.37;;
19163;SDS011;9714;51.208;4.242;2023-02-13T10:33:27;25.40;;;16.53;;
19163;SDS011;9714;51.208;4.242;2023-02-13T10:36:03;25.10;;;14.83;;
19163;SDS011;9714;51.208;4.242;2023-02-13T10:38:39;29.63;;;15.43;;
19163;SDS011;9714;51.208;4.242;2023-02-13T10:41:24;26.57;;;14.47;;
19163;SDS011;9714;51.208;4.242;2023-02-13T10:46:47;21.90;;;13.13;;
19163;SDS011;9714;51.208;4.242;2023-02-13T10:49:26;25.73;;;13.67;;
19163;SDS011;9714;51.208;4.242;2023-02-13T10:52:12;22.70;;;14.00;;
19163;SDS011;9714;51.208;4.242;2023-02-13T10:54:55;22.15;;;13.55;;
19163;SDS011;9714;51.208;4.242;2023-02-13T11:01:01;22.63;;;13.20;;
19163;SDS011;9714;51.208;4.242;2023-02-13T11:03:45;26.85;;;13.55;;
19163;SDS011;9714;51.208;4.242;2023-02-13T11:08:46;22.08;;;13.40;;
19163;SDS011;9714;51.208;4.242;2023-02-13T11:14:08;23.35;;;13.70;;
19163;SDS011;9714;51.208;4.242;2023-02-13T11:16:42;20.30;;;12.38;;
19163;SDS011;9714;51.208;4.242;2023-02-13T11:21:52;19.85;;;12.48;;
19163;SDS011;9714;51.208;4.242;2023-02-13T11:24:21;22.35;;;12.50;;
19163;SDS011;9714;51.208;4.242;2023-02-13T11:26:51;21.50;;;12.52;;
19163;SDS011;9714;51.208;4.242;2023-02-13T11:29:23;19.88;;;11.88;;
19163;SDS011;9714;51.208;4.242;2023-02-13T11:34:49;21.45;;;12.73;;
19163;SDS011;9714;51.208;4.242;2023-02-13T11:37:26;22.45;;;13.00;;
19163;SDS011;9714;51.208;4.242;2023-02-13T11:40:27;23.55;;;12.60;;
19163;SDS011;9714;51.208;4.242;2023-02-13T11:42:57;22.83;;;12.85;;
19163;SDS011;9714;51.208;4.242;2023-02-13T11:45:24;23.08;;;12.68;;
19163;SDS011;9714;51.208;4.242;2023-02-13T11:47:57;22.38;;;12.88;;
19163;SDS011;9714;51.208;4.242;2023-02-13T11:50:26;21.88;;;12.75;;
19163;SDS011;9714;51.208;4.242;2023-02-13T11:52:56;23.15;;;13.32;;
19163;SDS011;9714;51.208;4.242;2023-02-13T11:55:30;21.70;;;13.02;;
19163;SDS011;9714;51.208;4.242;2023-02-13T11:58:01;22.13;;;13.15;;
19163;SDS011;9714;51.208;4.242;2023-02-13T12:00:31;23.50;;;13.57;;
19163;SDS011;9714;51.208;4.242;2023-02-13T12:06:03;20.52;;;12.70;;
19163;SDS011;9714;51.208;4.242;2023-02-13T12:08:35;22.05;;;13.57;;
19163;SDS011;9714;51.208;4.242;2023-02-13T12:11:07;23.50;;;13.52;;
19163;SDS011;9714;51.208;4.242;2023-02-13T12:13:47;21.15;;;12.90;;
19163;SDS011;9714;51.208;4.242;2023-02-13T12:16:24;24.58;;;13.07;;
19163;SDS011;9714;51.208;4.242;2023-02-13T12:18:58;21.20;;;12.57;;
19163;SDS011;9714;51.208;4.242;2023-02-13T12:21:38;21.40;;;13.25;;
19163;SDS011;9714;51.208;4.242;2023-02-13T12:24:21;22.17;;;12.80;;
19163;SDS011;9714;51.208;4.242;2023-02-13T12:26:58;20.35;;;13.27;;
19163;SDS011;9714;51.208;4.242;2023-02-13T12:29:53;19.92;;;12.15;;
19163;SDS011;9714;51.208;4.242;2023-02-13T12:32:41;23.65;;;13.15;;
19163;SDS011;9714;51.208;4.242;2023-02-13T12:38:12;21.67;;;13.80;;
19163;SDS011;9714;51.208;4.242;2023-02-13T12:43:52;18.63;;;11.40;;
19163;SDS011;9714;51.208;4.242;2023-02-13T12:46:35;20.00;;;12.35;;
19163;SDS011;9714;51.208;4.242;2023-02-13T12:49:20;23.00;;;12.55;;
19163;SDS011;9714;51.208;4.242;2023-02-13T12:52:06;22.65;;;12.75;;
19163;SDS011;9714;51.208;4.242;2023-02-13T12:54:52;22.70;;;12.88;;
19163;SDS011;9714;51.208;4.242;2023-02-13T12:57:43;20.40;;;12.63;;
19163;SDS011;9714;51.208;4.242;2023-02-13T13:00:34;23.73;;;13.52;;
19163;SDS011;9714;51.208;4.242;2023-02-13T13:06:29;23.45;;;13.85;;
19163;SDS011;9714;51.208;4.242;2023-02-13T13:12:23;23.30;;;14.60;;
19163;SDS011;9714;51.208;4.242;2023-02-13T13:15:05;23.27;;;13.63;;
19163;SDS011;9714;51.208;4.242;2023-02-13T13:17:42;23.98;;;14.15;;
19163;SDS011;9714;51.208;4.242;2023-02-13T13:23:26;27.13;;;13.82;;
19163;SDS011;9714;51.208;4.242;2023-02-13T13:26:00;20.88;;;13.63;;
19163;SDS011;9714;51.208;4.242;2023-02-13T13:28:44;19.73;;;12.43;;
19163;SDS011;9714;51.208;4.242;2023-02-13T13:33:59;22.08;;;13.10;;
19163;SDS011;9714;51.208;4.242;2023-02-13T13:36:33;22.23;;;13.18;;
19163;SDS011;9714;51.208;4.242;2023-02-13T13:39:35;22.25;;;13.07;;
19163;SDS011;9714;51.208;4.242;2023-02-13T13:42:17;21.55;;;12.75;;
19163;SDS011;9714;51.208;4.242;2023-02-13T13:45:05;22.40;;;13.18;;
19163;SDS011;9714;51.208;4.242;2023-02-13T13:47:53;23.85;;;12.80;;
19163;SDS011;9714;51.208;4.242;2023-02-13T13:50:39;20.90;;;13.05;;
19163;SDS011;9714;51.208;4.242;2023-02-13T13:53:20;20.98;;;12.18;;
19163;SDS011;9714;51.208;4.242;2023-02-13T13:56:05;22.92;;;12.23;;
19163;SDS011;9714;51.208;4.242;2023-02-13T13:58:37;23.17;;;13.68;;
19163;SDS011;9714;51.208;4.242;2023-02-13T14:01:25;22.55;;;13.00;;
19163;SDS011;9714;51.208;4.242;2023-02-13T14:04:36;21.38;;;12.32;;
19163;SDS011;9714;51.208;4.242;2023-02-13T14:10:05;20.02;;;12.70;;
19163;SDS011;9714;51.208;4.242;2023-02-13T14:12:50;22.20;;;12.10;;
19163;SDS011;9714;51.208;4.242;2023-02-13T14:18:19;21.58;;;12.57;;
19163;SDS011;9714;51.208;4.242;2023-02-13T14:20:53;28.35;;;15.00;;
19163;SDS011;9714;51.208;4.242;2023-02-13T14:23:30;23.98;;;11.75;;
19163;SDS011;9714;51.208;4.242;2023-02-13T14:26:17;19.35;;;11.23;;
19163;SDS011;9714;51.208;4.242;2023-02-13T14:32:13;18.92;;;11.82;;
19163;SDS011;9714;51.208;4.242;2023-02-13T14:34:50;19.65;;;11.57;;
19163;SDS011;9714;51.208;4.242;2023-02-13T14:37:26;20.38;;;11.02;;
19163;SDS011;9714;51.208;4.242;2023-02-13T14:40:12;21.40;;;11.30;;
19163;SDS011;9714;51.208;4.242;2023-02-13T14:42:58;17.52;;;10.73;;
19163;SDS011;9714;51.208;4.242;2023-02-13T14:48:38;20.83;;;11.32;;
19163;SDS011;9714;51.208;4.242;2023-02-13T14:51:14;21.85;;;11.52;;
19163;SDS011;9714;51.208;4.242;2023-02-13T14:54:00;17.00;;;10.48;;
19163;SDS011;9714;51.208;4.242;2023-02-13T14:56:37;20.48;;;11.20;;
19163;SDS011;9714;51.208;4.242;2023-02-13T14:59:10;18.50;;;10.70;;
19163;SDS011;9714;51.208;4.242;2023-02-13T15:01:47;18.10;;;10.32;;
19163;SDS011;9714;51.208;4.242;2023-02-13T15:04:29;24.17;;;10.50;;
19163;SDS011;9714;51.208;4.242;2023-02-13T15:07:03;16.70;;;9.70;;
19163;SDS011;9714;51.208;4.242;2023-02-13T15:09:48;22.60;;;10.07;;
19163;SDS011;9714;51.208;4.242;2023-02-13T15:12:26;17.52;;;10.30;;
19163;SDS011;9714;51.208;4.242;2023-02-13T15:14:58;20.38;;;9.63;;
19163;SDS011;9714;51.208;4.242;2023-02-13T15:17:41;18.13;;;10.38;;
19163;SDS011;9714;51.208;4.242;2023-02-13T15:20:29;18.27;;;9.77;;
19163;SDS011;9714;51.208;4.242;2023-02-13T15:22:59;18.15;;;10.20;;
19163;SDS011;9714;51.208;4.242;2023-02-13T15:25:31;20.23;;;10.02;;
19163;SDS011;9714;51.208;4.242;2023-02-13T15:33:14;18.50;;;10.63;;
19163;SDS011;9714;51.208;4.242;2023-02-13T15:35:44;22.75;;;12.02;;
19163;SDS011;9714;51.208;4.242;2023-02-13T15:38:23;24.20;;;11.80;;
19163;SDS011;9714;51.208;4.242;2023-02-13T15:40:54;20.43;;;10.93;;
19163;SDS011;9714;51.208;4.242;2023-02-13T15:43:27;32.03;;;11.60;;
19163;SDS011;9714;51.208;4.242;2023-02-13T15:45:59;23.83;;;10.63;;
19163;SDS011;9714;51.208;4.242;2023-02-13T15:51:02;21.73;;;10.93;;
19163;SDS011;9714;51.208;4.242;2023-02-13T15:53:35;20.57;;;11.13;;
19163;SDS011;9714;51.208;4.242;2023-02-13T15:56:04;23.30;;;11.47;;
19163;SDS011;9714;51.208;4.242;2023-02-13T15:58:37;21.73;;;11.67;;
19163;SDS011;9714;51.208;4.242;2023-02-13T16:01:05;23.77;;;12.53;;
19163;SDS011;9714;51.208;4.242;2023-02-13T16:13:13;27.53;;;11.43;;
19163;SDS011;9714;51.208;4.242;2023-02-13T16:15:45;21.07;;;12.53;;
19163;SDS011;9714;51.208;4.242;2023-02-13T16:18:16;25.40;;;13.07;;
19163;SDS011;9714;51.208;4.242;2023-02-13T16:20:46;24.13;;;13.00;;
19163;SDS011;9714;51.208;4.242;2023-02-13T16:23:25;22.80;;;12.27;;
19163;SDS011;9714;51.208;4.242;2023-02-13T16:25:59;25.10;;;12.67;;
19163;SDS011;9714;51.208;4.242;2023-02-13T16:28:33;22.80;;;12.80;;
19163;SDS011;9714;51.208;4.242;2023-02-13T16:31:02;26.80;;;13.03;;
19163;SDS011;9714;51.208;4.242;2023-02-13T16:33:30;25.80;;;12.43;;
19163;SDS011;9714;51.208;4.242;2023-02-13T16:36:15;27.87;;;13.40;;
19163;SDS011;9714;51.208;4.242;2023-02-13T16:39:14;36.73;;;19.53;;
19163;SDS011;9714;51.208;4.242;2023-02-13T16:41:56;34.47;;;18.07;;
19163;SDS011;9714;51.208;4.242;2023-02-13T16:44:31;31.93;;;16.53;;
19163;SDS011;9714;51.208;4.242;2023-02-13T16:47:02;27.27;;;14.20;;
19163;SDS011;9714;51.208;4.242;2023-02-13T16:49:34;27.07;;;14.43;;
19163;SDS011;9714;51.208;4.242;2023-02-13T16:52:09;29.53;;;17.17;;
19163;SDS011;9714;51.208;4.242;2023-02-13T16:54:50;31.17;;;15.23;;
19163;SDS011;9714;51.208;4.242;2023-02-13T16:57:26;28.10;;;15.37;;
19163;SDS011;9714;51.208;4.242;2023-02-13T17:02:33;32.80;;;17.73;;
19163;SDS011;9714;51.208;4.242;2023-02-13T17:05:14;36.17;;;17.80;;
19163;SDS011;9714;51.208;4.242;2023-02-13T17:07:50;38.93;;;17.60;;
19163;SDS011;9714;51.208;4.242;2023-02-13T17:10:19;39.77;;;18.37;;
19163;SDS011;9714;51.208;4.242;2023-02-13T17:12:52;34.47;;;19.53;;
19163;SDS011;9714;51.208;4.242;2023-02-13T17:15:27;48.23;;;17.63;;
19163;SDS011;9714;51.208;4.242;2023-02-13T17:17:55;34.40;;;15.63;;
19163;SDS011;9714;51.208;4.242;2023-02-13T17:20:24;40.77;;;15.87;;
19163;SDS011;9714;51.208;4.242;2023-02-13T17:22:56;30.63;;;15.73;;
19163;SDS011;9714;51.208;4.242;2023-02-13T17:25:26;33.00;;;15.30;;
19163;SDS011;9714;51.208;4.242;2023-02-13T17:28:11;37.97;;;16.80;;
19163;SDS011;9714;51.208;4.242;2023-02-13T17:30:45;41.97;;;16.83;;
19163;SDS011;9714;51.208;4.242;2023-02-13T17:33:14;36.30;;;17.03;;
19163;SDS011;9714;51.208;4.242;2023-02-13T17:35:52;43.83;;;17.73;;
19163;SDS011;9714;51.208;4.242;2023-02-13T17:40:55;39.23;;;18.33;;
19163;SDS011;9714;51.208;4.242;2023-02-13T17:43:31;37.60;;;18.40;;
19163;SDS011;9714;51.208;4.242;2023-02-13T17:45:58;39.60;;;18.43;;
19163;SDS011;9714;51.208;4.242;2023-02-13T17:48:31;32.83;;;16.20;;
19163;SDS011;9714;51.208;4.242;2023-02-13T17:51:04;34.17;;;17.27;;
19163;SDS011;9714;51.208;4.242;2023-02-13T17:53:57;33.97;;;16.43;;
19163;SDS011;9714;51.208;4.242;2023-02-13T17:56:45;35.23;;;16.93;;
19163;SDS011;9714;51.208;4.242;2023-02-13T17:59:13;38.30;;;18.10;;
19163;SDS011;9714;51.208;4.242;2023-02-13T18:01:44;34.07;;;17.20;;
19163;SDS011;9714;51.208;4.242;2023-02-13T18:04:14;36.97;;;19.17;;
19163;SDS011;9714;51.208;4.242;2023-02-13T18:06:41;38.97;;;18.80;;
19163;SDS011;9714;51.208;4.242;2023-02-13T18:09:10;41.13;;;18.37;;
19163;SDS011;9714;51.208;4.242;2023-02-13T18:11:38;35.83;;;20.10;;
19163;SDS011;9714;51.208;4.242;2023-02-13T18:14:06;32.33;;;18.07;;
19163;SDS011;9714;51.208;4.242;2023-02-13T18:16:36;32.47;;;19.53;;
19163;SDS011;9714;51.208;4.242;2023-02-13T18:19:18;32.67;;;17.67;;
19163;SDS011;9714;51.208;4.242;2023-02-13T18:21:52;34.83;;;17.93;;
19163;SDS011;9714;51.208;4.242;2023-02-13T18:24:20;38.07;;;20.50;;
19163;SDS011;9714;51.208;4.242;2023-02-13T18:26:47;35.97;;;20.20;;
19163;SDS011;9714;51.208;4.242;2023-02-13T18:29:17;41.73;;;21.53;;
19163;SDS011;9714;51.208;4.242;2023-02-13T18:31:46;39.97;;;19.90;;
19163;SDS011;9714;51.208;4.242;2023-02-13T18:34:16;38.90;;;18.17;;
19163;SDS011;9714;51.208;4.242;2023-02-13T18:39:56;43.63;;;18.17;;
19163;SDS011;9714;51.208;4.242;2023-02-13T18:42:24;32.70;;;17.53;;
19163;SDS011;9714;51.208;4.242;2023-02-13T18:44:51;40.37;;;19.03;;
19163;SDS011;9714;51.208;4.242;2023-02-13T18:47:19;39.17;;;19.60;;
19163;SDS011;9714;51.208;4.242;2023-02-13T18:49:47;39.83;;;20.83;;
19163;SDS011;9714;51.208;4.242;2023-02-13T18:52:15;43.53;;;21.27;;
19163;SDS011;9714;51.208;4.242;2023-02-13T18:54:42;40.50;;;20.73;;
19163;SDS011;9714;51.208;4.242;2023-02-13T18:57:12;51.27;;;23.07;;
19163;SDS011;9714;51.208;4.242;2023-02-13T18:59:39;48.20;;;21.93;;
19163;SDS011;9714;51.208;4.242;2023-02-13T19:02:08;52.07;;;25.60;;
19163;SDS011;9714;51.208;4.242;2023-02-13T19:04:41;43.13;;;23.97;;
19163;SDS011;9714;51.208;4.242;2023-02-13T19:07:22;52.77;;;29.13;;
19163;SDS011;9714;51.208;4.242;2023-02-13T19:15:13;53.57;;;24.53;;
19163;SDS011;9714;51.208;4.242;2023-02-13T19:20:32;59.80;;;31.97;;
19163;SDS011;9714;51.208;4.242;2023-02-13T19:22:59;66.90;;;39.00;;
19163;SDS011;9714;51.208;4.242;2023-02-13T19:25:26;54.17;;;30.73;;
19163;SDS011;9714;51.208;4.242;2023-02-13T19:27:54;57.93;;;37.23;;
19163;SDS011;9714;51.208;4.242;2023-02-13T19:30:25;45.37;;;24.40;;
19163;SDS011;9714;51.208;4.242;2023-02-13T19:32:52;45.90;;;23.53;;
19163;SDS011;9714;51.208;4.242;2023-02-13T19:35:22;44.23;;;24.60;;
19163;SDS011;9714;51.208;4.242;2023-02-13T19:41:16;39.50;;;22.83;;
19163;SDS011;9714;51.208;4.242;2023-02-13T19:43:46;44.73;;;21.40;;
19163;SDS011;9714;51.208;4.242;2023-02-13T19:46:15;37.33;;;21.80;;
19163;SDS011;9714;51.208;4.242;2023-02-13T19:48:51;51.63;;;28.13;;
19163;SDS011;9714;51.208;4.242;2023-02-13T19:51:23;54.47;;;31.60;;
19163;SDS011;9714;51.208;4.242;2023-02-13T19:53:56;42.67;;;24.53;;
19163;SDS011;9714;51.208;4.242;2023-02-13T19:56:31;187.83;;;93.27;;
19163;SDS011;9714;51.208;4.242;2023-02-13T19:59:03;82.73;;;44.73;;
19163;SDS011;9714;51.208;4.242;2023-02-13T20:01:35;71.90;;;41.67;;
19163;SDS011;9714;51.208;4.242;2023-02-13T20:04:03;100.13;;;59.03;;
19163;SDS011;9714;51.208;4.242;2023-02-13T20:06:31;58.20;;;32.50;;
19163;SDS011;9714;51.208;4.242;2023-02-13T20:09:07;54.87;;;31.57;;